Juan De La Cosa — ECJE — position and weather

sailwx.info

Track history (hours):
 
Tides and Currents Weather Stations Pressure Air Temp Water Temp Dewpoint Dewpoint Depression Visibility Wind Speed Wind Dir Waves Ship Positions

Juan De La Cosa

Last reported at 2015-Jul-05 01:19 UTC. Time now 2015-Aug-02 16:28 UTC.
Position N 43°45' W 005°56'.
Warning: this ship's position is 28 days out of date.

Length 75 m; draft 4.5 m.

Type: Medical transport. MMSI: 224612000.

Date/timePositionNaut miles runAvg speedWind from/ knotsBaromVisibWave heightAir tempDewpointWater temp
2015-Jul-05 01:19N 43°45' W 005°56'7 8.6
2015-Jul-05 00:32N 43°45' W 005°47'9 8.6
2015-Jul-04 23:32N 43°43' W 005°35'9 8.8
2015-Jul-04 22:33N 43°43' W 005°23'9 8.9
2015-Jul-04 21:33N 43°41' W 005°11'10 9.5
2015-Jul-04 20:32N 43°40' W 004°58'  
2015-Jun-30 18:33N 43°27' W 003°48'0 0.0
2015-Jun-30 16:21N 43°27' W 003°48'14 1.0
2015-Jun-30 02:19N 43°37' W 004°03'40 5.7
2015-Jun-29 19:13N 43°54' W 004°54'3 5.3
2015-Jun-29 18:34N 43°55' W 004°59'5 5.3
2015-Jun-29 17:32N 43°57' W 005°06'11 5.3
2015-Jun-29 15:26N 44°02' W 005°20'5 5.2
2015-Jun-29 14:30N 44°04' W 005°26'17 4.2
2015-Jun-29 10:25N 44°10' W 005°48'72 6.6
2015-Jun-28 23:34N 44°40' W 007°20'9 7.7
2015-Jun-28 22:22N 44°44' W 007°32'7 7.7
2015-Jun-28 21:27N 44°47' W 007°41'15 7.7
2015-Jun-28 19:33N 44°53' W 007°59'  
Track history (hours):
 
Tides and Currents Weather Stations Pressure Air Temp Water Temp Dewpoint Dewpoint Depression Visibility Wind Speed Wind Dir Waves Ship Positions

Juan De La Cosa

Last reported at 2015-Jul-05 01:19 UTC. Time now 2015-Aug-02 16:28 UTC.
Position N 43°45' W 005°56'.
Warning: this ship's position is 28 days out of date.

Length 75 m; draft 4.5 m.

Type: Medical transport. MMSI: 224612000.

Date/timePositionNaut miles runAvg speedWind from/ knotsBaromVisibWave heightAir tempDewpointWater temp
2015-Jul-05 01:19N 43°45' W 005°56'7 8.6
2015-Jul-05 00:32N 43°45' W 005°47'9 8.6
2015-Jul-04 23:32N 43°43' W 005°35'9 8.8
2015-Jul-04 22:33N 43°43' W 005°23'9 8.9
2015-Jul-04 21:33N 43°41' W 005°11'10 9.5
2015-Jul-04 20:32N 43°40' W 004°58'  
2015-Jun-30 18:33N 43°27' W 003°48'0 0.0
2015-Jun-30 16:21N 43°27' W 003°48'14 1.0
2015-Jun-30 02:19N 43°37' W 004°03'40 5.7
2015-Jun-29 19:13N 43°54' W 004°54'3 5.3
2015-Jun-29 18:34N 43°55' W 004°59'5 5.3
2015-Jun-29 17:32N 43°57' W 005°06'11 5.3
2015-Jun-29 15:26N 44°02' W 005°20'5 5.2
2015-Jun-29 14:30N 44°04' W 005°26'17 4.2
2015-Jun-29 10:25N 44°10' W 005°48'72 6.6
2015-Jun-28 23:34N 44°40' W 007°20'9 7.7
2015-Jun-28 22:22N 44°44' W 007°32'7 7.7
2015-Jun-28 21:27N 44°47' W 007°41'15 7.7
2015-Jun-28 19:33N 44°53' W 007°59'  

Dump ship's entire track history